createdAt,value
2022-10-17T00:00:06.449Z,16.64
2022-10-17T00:00:16.706Z,16.64
2022-10-17T00:00:26.973Z,16.64
2022-10-17T00:00:37.259Z,16.62
2022-10-17T00:00:47.487Z,16.62
2022-10-17T00:00:57.763Z,16.64
2022-10-17T00:01:08.086Z,16.64
2022-10-17T00:01:18.319Z,16.64
2022-10-17T00:01:28.634Z,16.62
2022-10-17T00:01:38.943Z,16.62
2022-10-17T00:01:49.334Z,16.64
2022-10-17T00:01:59.589Z,16.62
2022-10-17T00:02:09.849Z,16.64
2022-10-17T00:02:20.110Z,16.64
2022-10-17T00:02:30.374Z,16.62
2022-10-17T00:02:40.635Z,16.64
2022-10-17T00:02:50.898Z,16.64
2022-10-17T00:03:01.157Z,16.65
2022-10-17T00:03:11.416Z,16.64
2022-10-17T00:03:21.678Z,16.65
2022-10-17T00:03:32.023Z,16.65
2022-10-17T00:03:42.241Z,16.64
2022-10-17T00:03:52.504Z,16.65
2022-10-17T00:04:02.773Z,16.64
2022-10-17T00:04:13.028Z,16.64
2022-10-17T00:04:23.387Z,16.65
2022-10-17T00:04:43.961Z,16.64
2022-10-17T00:04:54.222Z,16.65
2022-10-17T00:05:04.485Z,16.65
2022-10-17T00:05:14.746Z,16.65
2022-10-17T00:05:25.009Z,16.65
2022-10-17T00:05:35.268Z,16.64
2022-10-17T00:05:45.533Z,16.65
2022-10-17T00:05:56.632Z,16.65
2022-10-17T00:06:06.146Z,16.65
2022-10-17T00:06:16.392Z,16.65
2022-10-17T00:06:26.647Z,16.65
2022-10-17T00:06:36.908Z,16.66
2022-10-17T00:06:47.173Z,16.66
2022-10-17T00:06:57.431Z,16.64
2022-10-17T00:07:07.694Z,16.66
2022-10-17T00:07:17.955Z,16.66
2022-10-17T00:07:28.610Z,16.66
2022-10-17T00:07:38.651Z,16.66
2022-10-17T00:07:48.886Z,16.66
2022-10-17T00:07:59.149Z,16.66
2022-10-17T00:08:09.414Z,16.68
2022-10-17T00:08:19.674Z,16.65
2022-10-17T00:08:29.939Z,16.64
2022-10-17T00:08:40.198Z,16.66
2022-10-17T00:08:50.463Z,16.66
2022-10-17T00:09:00.799Z,16.66
2022-10-17T00:09:11.034Z,16.66
2022-10-17T00:09:21.295Z,16.66
2022-10-17T00:09:31.573Z,16.68
2022-10-17T00:09:41.824Z,16.68
2022-10-17T00:09:52.082Z,16.68
2022-10-17T00:10:02.343Z,16.65
2022-10-17T00:10:12.607Z,16.66
2022-10-17T00:10:22.868Z,16.66
2022-10-17T00:10:33.131Z,16.68
2022-10-17T00:10:43.391Z,16.66
2022-10-17T00:10:53.657Z,16.68
2022-10-17T00:11:03.928Z,16.66
2022-10-17T00:11:14.194Z,16.66
2022-10-17T00:11:24.458Z,16.68
2022-10-17T00:11:34.719Z,16.68
2022-10-17T00:11:44.977Z,16.69
2022-10-17T00:11:55.243Z,16.69
2022-10-17T00:12:05.505Z,16.68
2022-10-17T00:12:15.766Z,16.66
2022-10-17T00:12:26.029Z,16.69
2022-10-17T00:12:36.294Z,16.69
2022-10-17T00:12:46.550Z,16.68
2022-10-17T00:12:56.815Z,16.68
2022-10-17T00:13:07.074Z,16.68
2022-10-17T00:13:17.337Z,16.72
2022-10-17T00:13:27.665Z,16.69
2022-10-17T00:13:37.917Z,16.68
2022-10-17T00:13:48.176Z,16.69
2022-10-17T00:13:58.435Z,16.69
2022-10-17T00:14:08.697Z,16.68
2022-10-17T00:14:18.961Z,16.69
2022-10-17T00:14:29.222Z,16.69
2022-10-17T00:14:39.490Z,16.69
2022-10-17T00:14:49.750Z,16.69
2022-10-17T00:15:00.012Z,16.69
2022-10-17T00:15:10.269Z,16.69
2022-10-17T00:15:20.532Z,16.68
2022-10-17T00:15:30.799Z,16.69
2022-10-17T00:15:41.066Z,16.68
2022-10-17T00:15:51.322Z,16.68
2022-10-17T00:16:01.600Z,16.69
2022-10-17T00:16:11.858Z,16.69
2022-10-17T00:16:22.119Z,16.72
2022-10-17T00:16:32.388Z,16.72
2022-10-17T00:16:42.648Z,16.72
2022-10-17T00:16:52.914Z,16.69
2022-10-17T00:17:03.169Z,16.72
2022-10-17T00:17:13.428Z,16.72
2022-10-17T00:17:23.691Z,16.69
2022-10-17T00:17:33.952Z,16.72
2022-10-17T00:17:44.274Z,16.69
2022-10-17T00:17:54.499Z,16.72
2022-10-17T00:18:04.750Z,16.69
2022-10-17T00:18:15.036Z,16.69
2022-10-17T00:18:25.276Z,16.72
2022-10-17T00:18:35.539Z,16.69
2022-10-17T00:18:45.801Z,16.69
2022-10-17T00:18:56.062Z,16.69
2022-10-17T00:19:06.325Z,16.69
2022-10-17T00:19:16.597Z,16.69
2022-10-17T00:19:26.851Z,16.72
2022-10-17T00:19:37.113Z,16.69
2022-10-17T00:19:47.372Z,16.69
2022-10-17T00:19:57.634Z,16.69
2022-10-17T00:20:07.900Z,16.72
2022-10-17T00:20:18.183Z,16.69
2022-10-17T00:20:28.429Z,16.68
2022-10-17T00:20:38.691Z,16.69
2022-10-17T00:20:48.960Z,16.72
2022-10-17T00:20:59.248Z,16.72
2022-10-17T00:21:09.546Z,16.72
2022-10-17T00:21:19.789Z,16.69
2022-10-17T00:21:30.051Z,16.73
2022-10-17T00:21:40.312Z,16.69
2022-10-17T00:21:50.575Z,16.72
2022-10-17T00:22:00.844Z,16.69
2022-10-17T00:22:11.098Z,16.69
2022-10-17T00:22:21.358Z,16.72
2022-10-17T00:22:31.656Z,16.69
2022-10-17T00:22:41.914Z,16.69
2022-10-17T00:22:52.159Z,16.72
2022-10-17T00:23:02.416Z,16.72
2022-10-17T00:23:12.684Z,16.69
2022-10-17T00:23:22.964Z,16.69
2022-10-17T00:23:33.230Z,16.69
2022-10-17T00:23:43.494Z,16.69
2022-10-17T00:23:53.755Z,16.69
2022-10-17T00:24:04.006Z,16.69
2022-10-17T00:24:14.272Z,16.72
2022-10-17T00:24:24.536Z,16.69
2022-10-17T00:24:34.799Z,16.72
2022-10-17T00:24:45.057Z,16.72
2022-10-17T00:24:55.351Z,16.72
2022-10-17T00:25:05.592Z,16.69
2022-10-17T00:25:15.852Z,16.72
2022-10-17T00:25:26.108Z,16.69
2022-10-17T00:25:36.371Z,16.72
2022-10-17T00:25:46.637Z,16.72
2022-10-17T00:25:56.895Z,16.72
2022-10-17T00:26:07.170Z,16.72
2022-10-17T00:26:17.439Z,16.72
2022-10-17T00:26:27.699Z,16.69
2022-10-17T00:26:37.961Z,16.69
2022-10-17T00:26:48.338Z,16.69
2022-10-17T00:26:58.599Z,16.72
2022-10-17T00:27:08.863Z,16.72
2022-10-17T00:27:19.132Z,16.69
2022-10-17T00:27:29.891Z,16.72
2022-10-17T00:27:39.641Z,16.72
2022-10-17T00:27:49.900Z,16.73
2022-10-17T00:28:00.174Z,16.69
2022-10-17T00:28:10.427Z,16.72
2022-10-17T00:28:20.729Z,16.69
2022-10-17T00:28:31.034Z,16.72
2022-10-17T00:28:41.343Z,16.69
2022-10-17T00:28:51.719Z,16.69
2022-10-17T00:29:02.025Z,16.69
2022-10-17T00:29:12.246Z,16.72
2022-10-17T00:29:22.507Z,16.73
2022-10-17T00:29:32.770Z,16.69
2022-10-17T00:29:43.030Z,16.72
2022-10-17T00:29:53.293Z,16.72
2022-10-17T00:30:03.555Z,16.73
2022-10-17T00:30:13.882Z,16.69
2022-10-17T00:30:24.100Z,16.72
2022-10-17T00:30:34.363Z,16.72
2022-10-17T00:30:44.626Z,16.69
2022-10-17T00:30:54.891Z,16.69
2022-10-17T00:31:05.169Z,16.73
2022-10-17T00:31:15.431Z,16.69
2022-10-17T00:31:25.695Z,16.72
2022-10-17T00:31:35.961Z,16.69
2022-10-17T00:31:46.300Z,16.72
2022-10-17T00:31:56.544Z,16.69
2022-10-17T00:32:06.840Z,16.72
2022-10-17T00:32:17.068Z,16.68
2022-10-17T00:32:27.656Z,16.72
2022-10-17T00:32:37.710Z,16.72
2022-10-17T00:32:47.970Z,16.69
2022-10-17T00:32:58.234Z,16.69
2022-10-17T00:33:08.502Z,16.72
2022-10-17T00:33:18.766Z,16.72
2022-10-17T00:33:29.026Z,16.72
2022-10-17T00:33:39.291Z,16.69
2022-10-17T00:33:49.551Z,16.72
2022-10-17T00:33:59.812Z,16.72
2022-10-17T00:34:10.074Z,16.69
2022-10-17T00:34:20.336Z,16.72
2022-10-17T00:34:30.598Z,16.72
2022-10-17T00:34:40.906Z,16.69
2022-10-17T00:34:51.157Z,16.69
2022-10-17T00:35:01.411Z,16.69
2022-10-17T00:35:11.679Z,16.69
2022-10-17T00:35:21.933Z,16.69
2022-10-17T00:35:32.195Z,16.69
2022-10-17T00:35:42.459Z,16.68
2022-10-17T00:35:52.720Z,16.69
2022-10-17T00:36:02.985Z,16.72
2022-10-17T00:36:13.283Z,16.69
2022-10-17T00:36:23.523Z,16.72
2022-10-17T00:36:33.785Z,16.68
2022-10-17T00:36:44.046Z,16.69
2022-10-17T00:36:54.308Z,16.72
2022-10-17T00:37:04.569Z,16.72
2022-10-17T00:37:14.831Z,16.68
2022-10-17T00:37:25.094Z,16.72
2022-10-17T00:37:35.361Z,16.69
2022-10-17T00:37:45.618Z,16.69
2022-10-17T00:37:55.878Z,16.68
2022-10-17T00:38:06.141Z,16.68
2022-10-17T00:38:16.454Z,16.69
2022-10-17T00:38:26.689Z,16.69
2022-10-17T00:38:36.948Z,16.69
2022-10-17T00:38:47.210Z,16.69
2022-10-17T00:38:57.475Z,16.69
2022-10-17T00:39:07.735Z,16.69
2022-10-17T00:39:17.995Z,16.72
2022-10-17T00:39:28.257Z,16.68
2022-10-17T00:39:38.569Z,16.68
2022-10-17T00:39:48.791Z,16.68
2022-10-17T00:39:59.059Z,16.69
2022-10-17T00:40:09.315Z,16.69
2022-10-17T00:40:19.585Z,16.69
2022-10-17T00:40:29.851Z,16.68
2022-10-17T00:40:40.135Z,16.72
2022-10-17T00:40:52.673Z,16.72
2022-10-17T00:41:00.799Z,16.69
2022-10-17T00:41:11.058Z,16.69
2022-10-17T00:41:21.320Z,16.69
2022-10-17T00:41:31.585Z,16.68
2022-10-17T00:41:41.841Z,16.69
2022-10-17T00:41:52.106Z,16.69
2022-10-17T00:42:02.366Z,16.69
2022-10-17T00:42:12.626Z,16.69
2022-10-17T00:42:22.891Z,16.69
2022-10-17T00:42:33.181Z,16.68
2022-10-17T00:42:43.425Z,16.69
2022-10-17T00:42:53.700Z,16.69
2022-10-17T00:43:03.946Z,16.68
2022-10-17T00:43:14.210Z,16.66
2022-10-17T00:43:24.470Z,16.68
2022-10-17T00:43:34.734Z,16.68
2022-10-17T00:43:44.993Z,16.69
2022-10-17T00:43:55.260Z,16.66
2022-10-17T00:44:05.517Z,16.68
2022-10-17T00:44:15.778Z,16.68
2022-10-17T00:44:26.051Z,16.68
2022-10-17T00:44:36.310Z,16.69
2022-10-17T00:44:46.572Z,16.72
2022-10-17T00:44:56.883Z,16.68
2022-10-17T00:45:07.127Z,16.69
2022-10-17T00:45:17.384Z,16.68
2022-10-17T00:45:27.645Z,16.68
2022-10-17T00:45:37.907Z,16.68
2022-10-17T00:45:48.168Z,16.68
2022-10-17T00:45:58.432Z,16.68
2022-10-17T00:46:08.707Z,16.68
2022-10-17T00:46:18.970Z,16.68
2022-10-17T00:46:29.231Z,16.68
2022-10-17T00:46:39.492Z,16.68
2022-10-17T00:46:49.756Z,16.69
2022-10-17T00:47:00.019Z,16.69
2022-10-17T00:47:10.276Z,16.68
2022-10-17T00:47:20.546Z,16.66
2022-10-17T00:47:30.805Z,16.68
2022-10-17T00:47:41.063Z,16.69
2022-10-17T00:47:51.324Z,16.68
2022-10-17T00:48:01.640Z,16.68
2022-10-17T00:48:11.915Z,16.68
2022-10-17T00:48:23.342Z,16.69
2022-10-17T00:48:32.367Z,16.66
2022-10-17T00:48:42.635Z,16.68
2022-10-17T00:48:52.892Z,16.68
2022-10-17T00:49:03.153Z,16.66
2022-10-17T00:49:13.414Z,16.66
2022-10-17T00:49:23.681Z,16.68
2022-10-17T00:49:33.943Z,16.68
2022-10-17T00:49:44.209Z,16.66
2022-10-17T00:49:54.551Z,16.66
2022-10-17T00:50:04.781Z,16.68
2022-10-17T00:50:15.031Z,16.68
2022-10-17T00:50:25.296Z,16.65
2022-10-17T00:50:35.561Z,16.66
2022-10-17T00:50:45.817Z,16.65
2022-10-17T00:50:56.083Z,16.66
2022-10-17T00:51:06.357Z,16.68
2022-10-17T00:51:16.644Z,16.66
2022-10-17T00:51:26.880Z,16.65
2022-10-17T00:51:37.148Z,16.66
2022-10-17T00:51:47.403Z,16.66
2022-10-17T00:51:57.736Z,16.66
2022-10-17T00:52:07.998Z,16.65
2022-10-17T00:52:18.258Z,16.66
2022-10-17T00:52:28.893Z,16.66
2022-10-17T00:52:38.944Z,16.68
2022-10-17T00:52:49.181Z,16.66
2022-10-17T00:52:59.435Z,16.66
2022-10-17T00:53:09.701Z,16.66
2022-10-17T00:53:19.964Z,16.66
2022-10-17T00:53:30.224Z,16.66
2022-10-17T00:53:40.483Z,16.65
2022-10-17T00:53:50.749Z,16.65
2022-10-17T00:54:01.007Z,16.65
2022-10-17T00:54:11.272Z,16.65
2022-10-17T00:54:21.535Z,16.66
2022-10-17T00:54:31.800Z,16.68
2022-10-17T00:54:42.053Z,16.66
2022-10-17T00:54:52.316Z,16.66
2022-10-17T00:55:02.576Z,16.65
2022-10-17T00:55:12.839Z,16.65
2022-10-17T00:55:23.119Z,16.66
2022-10-17T00:55:33.363Z,16.65
2022-10-17T00:55:43.624Z,16.65
2022-10-17T00:55:53.889Z,16.64
2022-10-17T00:56:04.160Z,16.65
2022-10-17T00:56:14.421Z,16.64
2022-10-17T00:56:24.682Z,16.66
2022-10-17T00:56:34.945Z,16.65
2022-10-17T00:56:45.204Z,16.66
2022-10-17T00:56:55.467Z,16.65
2022-10-17T00:57:05.734Z,16.65
2022-10-17T00:57:15.996Z,16.65
2022-10-17T00:57:26.251Z,16.65
2022-10-17T00:57:36.516Z,16.66
2022-10-17T00:57:46.785Z,16.64
2022-10-17T00:57:57.038Z,16.66
2022-10-17T00:58:07.297Z,16.65
2022-10-17T00:58:17.566Z,16.62
2022-10-17T00:58:27.830Z,16.64
2022-10-17T00:58:38.084Z,16.65
2022-10-17T00:58:48.348Z,16.65
2022-10-17T00:58:58.625Z,16.65
2022-10-17T00:59:08.878Z,16.65
2022-10-17T00:59:19.137Z,16.65
2022-10-17T00:59:29.398Z,16.64
2022-10-17T00:59:39.658Z,16.65
2022-10-17T00:59:49.926Z,16.64
2022-10-17T01:00:00.255Z,16.62
2022-10-17T01:00:10.469Z,16.62
2022-10-17T01:00:20.734Z,16.65
2022-10-17T01:00:30.993Z,16.64
2022-10-17T01:00:41.288Z,16.64
2022-10-17T01:00:51.543Z,16.64
2022-10-17T01:01:01.878Z,16.65
2022-10-17T01:01:12.169Z,16.62
2022-10-17T01:01:22.474Z,16.65
2022-10-17T01:01:32.781Z,16.65
2022-10-17T01:01:43.125Z,16.62
2022-10-17T01:01:53.363Z,16.64
2022-10-17T01:02:03.629Z,16.61
2022-10-17T01:02:13.889Z,16.62
2022-10-17T01:02:24.165Z,16.64
2022-10-17T01:02:34.424Z,16.64
2022-10-17T01:02:44.674Z,16.62
2022-10-17T01:02:54.934Z,16.62
2022-10-17T01:03:05.258Z,16.64
2022-10-17T01:03:15.480Z,16.62
2022-10-17T01:03:25.753Z,16.64
2022-10-17T01:03:36.007Z,16.62
2022-10-17T01:03:46.271Z,16.62
2022-10-17T01:03:56.488Z,16.64
2022-10-17T01:04:06.756Z,16.61
2022-10-17T01:04:17.013Z,16.61
2022-10-17T01:04:27.286Z,16.61
2022-10-17T01:04:37.543Z,16.61
2022-10-17T01:04:47.807Z,16.62
2022-10-17T01:04:58.066Z,16.61
2022-10-17T01:05:08.330Z,16.61
2022-10-17T01:05:18.608Z,16.59
2022-10-17T01:05:28.856Z,16.61
2022-10-17T01:05:39.112Z,16.61
2022-10-17T01:05:49.374Z,16.62
2022-10-17T01:05:59.634Z,16.61
2022-10-17T01:06:09.916Z,16.59
2022-10-17T01:06:20.191Z,16.61
2022-10-17T01:06:30.493Z,16.61
2022-10-17T01:06:40.714Z,16.61
2022-10-17T01:06:50.979Z,16.61
2022-10-17T01:07:01.241Z,16.59
2022-10-17T01:07:11.501Z,16.62
2022-10-17T01:07:21.763Z,16.61
2022-10-17T01:07:34.851Z,16.61
2022-10-17T01:07:43.240Z,16.62
2022-10-17T01:07:52.635Z,16.62
2022-10-17T01:08:02.896Z,16.62
2022-10-17T01:08:13.162Z,16.62
2022-10-17T01:08:23.419Z,16.61
2022-10-17T01:08:33.682Z,16.62
2022-10-17T01:08:43.942Z,16.64
2022-10-17T01:08:54.207Z,16.61
2022-10-17T01:09:04.470Z,16.61
2022-10-17T01:09:14.728Z,16.59
2022-10-17T01:09:24.993Z,16.61
2022-10-17T01:09:35.250Z,16.62
2022-10-17T01:09:45.512Z,16.62
2022-10-17T01:09:55.774Z,16.62
2022-10-17T01:10:06.092Z,16.61
2022-10-17T01:10:16.385Z,16.64
2022-10-17T01:10:26.631Z,16.64
2022-10-17T01:10:36.886Z,16.62
2022-10-17T01:10:47.145Z,16.62
2022-10-17T01:10:57.425Z,16.64
2022-10-17T01:11:07.690Z,16.61
2022-10-17T01:11:17.952Z,16.64
2022-10-17T01:11:28.214Z,16.62
2022-10-17T01:11:38.478Z,16.61
2022-10-17T01:11:48.735Z,16.62
2022-10-17T01:11:58.999Z,16.61
2022-10-17T01:12:09.258Z,16.61
2022-10-17T01:12:19.520Z,16.62
2022-10-17T01:12:30.128Z,16.62
2022-10-17T01:12:40.108Z,16.62
2022-10-17T01:12:50.369Z,16.62
2022-10-17T01:13:00.633Z,16.62
2022-10-17T01:13:10.894Z,16.62
2022-10-17T01:13:21.159Z,16.62
2022-10-17T01:13:31.428Z,16.62
2022-10-17T01:13:41.694Z,16.62
2022-10-17T01:13:51.953Z,16.62
2022-10-17T01:14:02.211Z,16.62
2022-10-17T01:14:12.476Z,16.62
2022-10-17T01:14:22.733Z,16.62
2022-10-17T01:14:33.001Z,16.61
2022-10-17T01:14:43.258Z,16.62
2022-10-17T01:14:53.520Z,16.62
2022-10-17T01:15:03.780Z,16.61
2022-10-17T01:15:14.045Z,16.61
2022-10-17T01:15:24.353Z,16.62
2022-10-17T01:15:34.605Z,16.62
2022-10-17T01:15:44.867Z,16.62
2022-10-17T01:15:55.130Z,16.64
2022-10-17T01:16:05.408Z,16.62
2022-10-17T01:16:15.672Z,16.62
2022-10-17T01:16:25.930Z,16.62
2022-10-17T01:16:36.193Z,16.64
2022-10-17T01:16:46.451Z,16.62
2022-10-17T01:16:56.715Z,16.62
2022-10-17T01:17:07.040Z,16.62
2022-10-17T01:17:17.267Z,16.61
2022-10-17T01:17:27.527Z,16.61
2022-10-17T01:17:37.793Z,16.62
2022-10-17T01:17:48.054Z,16.62
2022-10-17T01:17:58.319Z,16.61
2022-10-17T01:18:08.576Z,16.64
2022-10-17T01:18:18.838Z,16.62
2022-10-17T01:18:29.100Z,16.64
2022-10-17T01:18:39.361Z,16.62
2022-10-17T01:18:49.622Z,16.62
2022-10-17T01:18:59.888Z,16.62
2022-10-17T01:19:10.148Z,16.61
2022-10-17T01:19:20.460Z,16.61
2022-10-17T01:19:30.732Z,16.61
2022-10-17T01:19:40.972Z,16.62
2022-10-17T01:19:51.237Z,16.64
2022-10-17T01:20:01.526Z,16.64
2022-10-17T01:20:11.762Z,16.61
2022-10-17T01:20:22.019Z,16.62
2022-10-17T01:20:32.279Z,16.61
2022-10-17T01:20:42.545Z,16.61
2022-10-17T01:20:52.803Z,16.62
2022-10-17T01:21:03.081Z,16.62
2022-10-17T01:21:13.345Z,16.61
2022-10-17T01:21:23.624Z,16.64
2022-10-17T01:21:33.865Z,16.62
2022-10-17T01:21:44.126Z,16.64
2022-10-17T01:21:54.394Z,16.64
2022-10-17T01:22:04.650Z,16.64
2022-10-17T01:22:14.912Z,16.62
2022-10-17T01:22:25.411Z,16.62
2022-10-17T01:22:35.562Z,16.62
2022-10-17T01:22:45.824Z,16.64
2022-10-17T01:22:56.084Z,16.62
2022-10-17T01:23:06.350Z,16.64
2022-10-17T01:23:16.608Z,16.62
2022-10-17T01:23:26.871Z,16.61
2022-10-17T01:23:37.138Z,16.61
2022-10-17T01:23:47.399Z,16.62
2022-10-17T01:23:57.661Z,16.62
2022-10-17T01:24:07.959Z,16.64
2022-10-17T01:24:18.200Z,16.64
2022-10-17T01:24:28.461Z,16.64
2022-10-17T01:24:38.721Z,16.61
2022-10-17T01:24:48.988Z,16.62
2022-10-17T01:24:59.246Z,16.62
2022-10-17T01:25:09.510Z,16.62
2022-10-17T01:25:19.770Z,16.64
2022-10-17T01:25:30.037Z,16.64
2022-10-17T01:25:40.298Z,16.61
2022-10-17T01:25:50.563Z,16.62
2022-10-17T01:26:00.818Z,16.62
2022-10-17T01:26:11.099Z,16.62
2022-10-17T01:26:21.356Z,16.62
2022-10-17T01:26:31.619Z,16.61
2022-10-17T01:26:41.879Z,16.62
2022-10-17T01:26:52.140Z,16.62
2022-10-17T01:27:02.403Z,16.59
2022-10-17T01:27:12.699Z,16.62
2022-10-17T01:27:22.962Z,16.61
2022-10-17T01:27:33.217Z,16.62
2022-10-17T01:27:43.477Z,16.62
2022-10-17T01:27:53.740Z,16.61
2022-10-17T01:28:03.999Z,16.61
2022-10-17T01:28:14.396Z,16.61
2022-10-17T01:28:24.801Z,16.59
2022-10-17T01:28:35.040Z,16.59
2022-10-17T01:28:45.306Z,16.59
2022-10-17T01:28:55.567Z,16.59
2022-10-17T01:29:05.831Z,16.59
2022-10-17T01:29:16.100Z,16.58
2022-10-17T01:29:26.353Z,16.59
2022-10-17T01:29:36.780Z,16.59
2022-10-17T01:29:47.040Z,16.59
2022-10-17T01:29:57.302Z,16.59
2022-10-17T01:30:07.565Z,16.59
2022-10-17T01:30:17.827Z,16.59
2022-10-17T01:30:28.089Z,16.61
2022-10-17T01:30:38.353Z,16.59
2022-10-17T01:30:48.614Z,16.61
2022-10-17T01:30:58.874Z,16.59
2022-10-17T01:31:09.152Z,16.58
2022-10-17T01:31:19.411Z,16.58
2022-10-17T01:31:29.688Z,16.59
2022-10-17T01:31:39.937Z,16.59
2022-10-17T01:31:50.197Z,16.59
2022-10-17T01:32:00.462Z,16.59
2022-10-17T01:32:10.822Z,16.59
2022-10-17T01:32:21.082Z,16.59
2022-10-17T01:32:31.343Z,16.59
2022-10-17T01:32:41.606Z,16.61
2022-10-17T01:32:51.874Z,16.58
2022-10-17T01:33:02.152Z,16.59
2022-10-17T01:33:12.402Z,16.59
2022-10-17T01:33:22.666Z,16.58
2022-10-17T01:33:32.926Z,16.58
2022-10-17T01:33:43.190Z,16.58
2022-10-17T01:33:53.453Z,16.58
2022-10-17T01:34:03.766Z,16.59
2022-10-17T01:34:14.030Z,16.59
2022-10-17T01:34:24.286Z,16.57
2022-10-17T01:34:34.550Z,16.61
2022-10-17T01:34:44.811Z,16.58
2022-10-17T01:34:55.082Z,16.59
2022-10-17T01:35:05.347Z,16.59
2022-10-17T01:35:15.606Z,16.57
2022-10-17T01:35:25.868Z,16.57
2022-10-17T01:35:36.128Z,16.59
2022-10-17T01:35:46.394Z,16.57
2022-10-17T01:35:58.622Z,16.59
2022-10-17T01:36:06.894Z,16.59
2022-10-17T01:36:17.161Z,16.58
2022-10-17T01:36:27.443Z,16.58
2022-10-17T01:36:37.679Z,16.59
2022-10-17T01:36:47.944Z,16.57
2022-10-17T01:36:58.210Z,16.58
2022-10-17T01:37:08.466Z,16.57
2022-10-17T01:37:18.795Z,16.58
2022-10-17T01:37:29.046Z,16.57
2022-10-17T01:37:39.339Z,16.58
2022-10-17T01:37:49.622Z,16.55
2022-10-17T01:37:59.843Z,16.57
2022-10-17T01:38:10.106Z,16.58
2022-10-17T01:38:20.371Z,16.57
2022-10-17T01:38:30.627Z,16.57
2022-10-17T01:38:40.892Z,16.57
2022-10-17T01:38:51.166Z,16.55
2022-10-17T01:39:01.420Z,16.57
2022-10-17T01:39:11.682Z,16.57
2022-10-17T01:39:21.949Z,16.57
2022-10-17T01:39:34.432Z,16.55
2022-10-17T01:39:45.506Z,16.57
2022-10-17T01:39:52.698Z,16.55
2022-10-17T01:40:02.962Z,16.57
2022-10-17T01:40:13.223Z,16.57
2022-10-17T01:40:23.485Z,16.57
2022-10-17T01:40:33.749Z,16.55
2022-10-17T01:40:44.012Z,16.54
2022-10-17T01:40:54.274Z,16.55
2022-10-17T01:41:04.532Z,16.55
2022-10-17T01:41:14.816Z,16.54
2022-10-17T01:41:25.081Z,16.57
2022-10-17T01:41:35.338Z,16.55
2022-10-17T01:41:45.597Z,16.55
2022-10-17T01:41:55.860Z,16.54
2022-10-17T01:42:06.122Z,16.54
2022-10-17T01:42:16.383Z,16.55
2022-10-17T01:42:27.122Z,16.54
2022-10-17T01:42:37.038Z,16.51
2022-10-17T01:42:47.297Z,16.51
2022-10-17T01:42:57.562Z,16.54
2022-10-17T01:43:07.825Z,16.54
2022-10-17T01:43:18.084Z,16.51
2022-10-17T01:43:28.344Z,16.54
2022-10-17T01:43:38.613Z,16.54
2022-10-17T01:43:48.870Z,16.54
2022-10-17T01:43:59.130Z,16.51
2022-10-17T01:44:09.391Z,16.51
2022-10-17T01:44:19.664Z,16.50
2022-10-17T01:44:29.923Z,16.51
2022-10-17T01:44:40.187Z,16.50
2022-10-17T01:44:50.450Z,16.51
2022-10-17T01:45:00.715Z,16.50
2022-10-17T01:45:10.976Z,16.50
2022-10-17T01:45:21.238Z,16.51
2022-10-17T01:45:31.498Z,16.50
2022-10-17T01:45:41.779Z,16.50
2022-10-17T01:45:52.040Z,16.51
2022-10-17T01:46:02.299Z,16.51
2022-10-17T01:46:12.563Z,16.51
2022-10-17T01:46:22.823Z,16.50
2022-10-17T01:46:33.085Z,16.50
2022-10-17T01:46:43.351Z,16.50
2022-10-17T01:46:53.656Z,16.51
2022-10-17T01:47:03.882Z,16.49
2022-10-17T01:47:14.142Z,16.51
2022-10-17T01:47:24.624Z,16.49
2022-10-17T01:47:34.802Z,16.51
2022-10-17T01:47:45.069Z,16.50
2022-10-17T01:47:55.324Z,16.50
2022-10-17T01:48:05.586Z,16.50
2022-10-17T01:48:15.858Z,16.49
2022-10-17T01:48:26.124Z,16.50
2022-10-17T01:48:36.377Z,16.50
2022-10-17T01:48:46.643Z,16.50
2022-10-17T01:48:56.901Z,16.49
2022-10-17T01:49:07.165Z,16.50
2022-10-17T01:49:17.467Z,16.50
2022-10-17T01:49:27.713Z,16.50
2022-10-17T01:49:37.983Z,16.49
2022-10-17T01:49:48.238Z,16.49
2022-10-17T01:49:58.507Z,16.50
2022-10-17T01:50:08.762Z,16.49
2022-10-17T01:50:19.022Z,16.49
2022-10-17T01:50:29.291Z,16.50
2022-10-17T01:50:39.546Z,16.49
2022-10-17T01:50:49.822Z,16.49
2022-10-17T01:51:00.089Z,16.50
2022-10-17T01:51:10.344Z,16.49
2022-10-17T01:51:20.607Z,16.50
2022-10-17T01:51:30.888Z,16.49
2022-10-17T01:51:41.127Z,16.47
2022-10-17T01:51:51.392Z,16.49
2022-10-17T01:52:01.649Z,16.49
2022-10-17T01:52:11.912Z,16.49
2022-10-17T01:52:22.174Z,16.47
2022-10-17T01:52:32.444Z,16.47
2022-10-17T01:52:42.695Z,16.49
2022-10-17T01:52:52.963Z,16.47
2022-10-17T01:53:03.221Z,16.46
2022-10-17T01:53:13.481Z,16.49
2022-10-17T01:53:23.746Z,16.49
2022-10-17T01:53:34.003Z,16.47
2022-10-17T01:53:44.341Z,16.50
2022-10-17T01:53:54.557Z,16.47
2022-10-17T01:54:04.813Z,16.49
2022-10-17T01:54:15.075Z,16.47
2022-10-17T01:54:25.337Z,16.47
2022-10-17T01:54:35.596Z,16.47
2022-10-17T01:54:45.927Z,16.49
2022-10-17T01:54:56.155Z,16.47
2022-10-17T01:55:06.387Z,16.49
2022-10-17T01:55:16.654Z,16.49
2022-10-17T01:55:26.924Z,16.47
2022-10-17T01:55:37.183Z,16.49
2022-10-17T01:55:47.543Z,16.47
2022-10-17T01:56:08.230Z,16.46
2022-10-17T01:56:18.490Z,16.49
2022-10-17T01:56:28.758Z,16.47
2022-10-17T01:56:39.014Z,16.47
2022-10-17T01:56:49.274Z,16.49
2022-10-17T01:56:59.538Z,16.47
2022-10-17T01:57:09.797Z,16.46
2022-10-17T01:57:20.055Z,16.46
2022-10-17T01:57:30.831Z,16.46
2022-10-17T01:57:40.717Z,16.49
2022-10-17T01:57:50.982Z,16.47
2022-10-17T01:58:01.240Z,16.49
2022-10-17T01:58:11.504Z,16.47
2022-10-17T01:58:21.770Z,16.47
2022-10-17T01:58:32.031Z,16.46
2022-10-17T01:58:42.287Z,16.47
2022-10-17T01:58:52.549Z,16.47
2022-10-17T01:59:02.810Z,16.49
2022-10-17T01:59:13.079Z,16.47
2022-10-17T01:59:23.335Z,16.47
2022-10-17T01:59:33.636Z,16.47
2022-10-17T01:59:43.954Z,16.47
2022-10-17T01:59:54.196Z,16.46
2022-10-17T02:00:04.469Z,16.47
2022-10-17T02:00:14.726Z,16.47
2022-10-17T02:00:25.006Z,16.46
2022-10-17T02:00:35.265Z,16.46
2022-10-17T02:00:45.527Z,16.47
2022-10-17T02:00:55.825Z,16.46
2022-10-17T02:01:06.120Z,16.47
2022-10-17T02:01:16.429Z,16.46
2022-10-17T02:01:26.749Z,16.49
2022-10-17T02:01:37.099Z,16.46
2022-10-17T02:01:47.435Z,16.47
2022-10-17T02:01:57.662Z,16.46
2022-10-17T02:02:07.923Z,16.47
2022-10-17T02:02:18.186Z,16.46
2022-10-17T02:02:28.451Z,16.47
2022-10-17T02:02:38.708Z,16.47
2022-10-17T02:02:49.015Z,16.46
2022-10-17T02:02:59.255Z,16.47
2022-10-17T02:03:09.516Z,16.47
2022-10-17T02:03:19.778Z,16.47
2022-10-17T02:03:30.037Z,16.46
2022-10-17T02:03:40.299Z,16.47
2022-10-17T02:03:50.560Z,16.47
2022-10-17T02:04:00.823Z,16.46
2022-10-17T02:04:11.083Z,16.47
2022-10-17T02:04:21.351Z,16.47
2022-10-17T02:04:31.609Z,16.47
2022-10-17T02:04:41.874Z,16.44
2022-10-17T02:04:52.220Z,16.47
2022-10-17T02:05:02.492Z,16.46
2022-10-17T02:05:12.712Z,16.49
2022-10-17T02:05:22.967Z,16.47
2022-10-17T02:05:33.243Z,16.47
2022-10-17T02:05:43.505Z,16.47
2022-10-17T02:05:53.764Z,16.47
2022-10-17T02:06:04.026Z,16.46
2022-10-17T02:06:14.287Z,16.47
2022-10-17T02:06:24.548Z,16.47
2022-10-17T02:06:34.830Z,16.46
2022-10-17T02:06:45.071Z,16.47
2022-10-17T02:06:55.330Z,16.46
2022-10-17T02:07:05.593Z,16.47
2022-10-17T02:07:15.852Z,16.49
2022-10-17T02:07:26.530Z,16.47
2022-10-17T02:07:36.523Z,16.47
2022-10-17T02:07:46.780Z,16.47
2022-10-17T02:07:57.041Z,16.47
2022-10-17T02:08:07.302Z,16.46
2022-10-17T02:08:17.569Z,16.46
2022-10-17T02:08:27.827Z,16.47
2022-10-17T02:08:38.086Z,16.46
2022-10-17T02:08:48.347Z,16.46
2022-10-17T02:08:58.610Z,16.47
2022-10-17T02:09:08.871Z,16.47
2022-10-17T02:09:19.134Z,16.47
2022-10-17T02:09:29.392Z,16.47
2022-10-17T02:09:39.653Z,16.46
2022-10-17T02:09:49.917Z,16.47
2022-10-17T02:10:00.174Z,16.47
2022-10-17T02:10:10.436Z,16.49
2022-10-17T02:10:20.738Z,16.47
2022-10-17T02:10:30.993Z,16.49
2022-10-17T02:10:41.247Z,16.47
2022-10-17T02:10:51.525Z,16.49
2022-10-17T02:11:01.798Z,16.47
2022-10-17T02:11:12.047Z,16.47
2022-10-17T02:11:22.311Z,16.47
2022-10-17T02:11:32.571Z,16.47
2022-10-17T02:11:42.831Z,16.46
2022-10-17T02:11:53.095Z,16.50
2022-10-17T02:12:03.355Z,16.49
2022-10-17T02:12:13.614Z,16.49
2022-10-17T02:12:23.879Z,16.47
2022-10-17T02:12:34.143Z,16.47